sensor_id;sensor_type;location;lat;lon;timestamp;P1;durP1;ratioP1;P2;durP2;ratioP2
54699;SDS011;40599;53.132;6.090;2023-08-30T00:01:18;19.23;;;13.45;;
54699;SDS011;40599;53.132;6.090;2023-08-30T00:03:44;19.90;;;13.88;;
54699;SDS011;40599;53.132;6.090;2023-08-30T00:06:11;18.55;;;12.93;;
54699;SDS011;40599;53.132;6.090;2023-08-30T00:08:37;16.58;;;13.32;;
54699;SDS011;40599;53.132;6.090;2023-08-30T00:11:03;18.55;;;15.05;;
54699;SDS011;40599;53.132;6.090;2023-08-30T00:13:34;17.97;;;12.90;;
54699;SDS011;40599;53.132;6.090;2023-08-30T00:16:00;15.85;;;12.68;;
54699;SDS011;40599;53.132;6.090;2023-08-30T00:18:28;15.37;;;13.20;;
54699;SDS011;40599;53.132;6.090;2023-08-30T00:20:54;17.10;;;13.23;;
54699;SDS011;40599;53.132;6.090;2023-08-30T00:23:22;18.53;;;13.77;;
54699;SDS011;40599;53.132;6.090;2023-08-30T00:25:48;15.23;;;12.05;;
54699;SDS011;40599;53.132;6.090;2023-08-30T00:28:14;15.90;;;12.35;;
54699;SDS011;40599;53.132;6.090;2023-08-30T00:30:40;15.73;;;12.43;;
54699;SDS011;40599;53.132;6.090;2023-08-30T00:33:06;18.35;;;13.00;;
54699;SDS011;40599;53.132;6.090;2023-08-30T00:35:33;20.88;;;12.93;;
54699;SDS011;40599;53.132;6.090;2023-08-30T00:37:59;16.05;;;12.95;;
54699;SDS011;40599;53.132;6.090;2023-08-30T00:40:25;14.65;;;12.23;;
54699;SDS011;40599;53.132;6.090;2023-08-30T00:42:52;16.33;;;13.05;;
54699;SDS011;40599;53.132;6.090;2023-08-30T00:45:18;17.02;;;13.32;;
54699;SDS011;40599;53.132;6.090;2023-08-30T00:47:44;15.93;;;13.13;;
54699;SDS011;40599;53.132;6.090;2023-08-30T00:52:37;15.13;;;12.43;;
54699;SDS011;40599;53.132;6.090;2023-08-30T00:55:03;16.05;;;12.57;;
54699;SDS011;40599;53.132;6.090;2023-08-30T00:57:29;16.10;;;12.30;;
54699;SDS011;40599;53.132;6.090;2023-08-30T00:59:56;21.48;;;14.35;;
54699;SDS011;40599;53.132;6.090;2023-08-30T01:02:22;17.00;;;12.32;;
54699;SDS011;40599;53.132;6.090;2023-08-30T01:07:15;17.33;;;12.55;;
54699;SDS011;40599;53.132;6.090;2023-08-30T01:09:41;15.15;;;12.75;;
54699;SDS011;40599;53.132;6.090;2023-08-30T01:12:12;16.98;;;13.55;;
54699;SDS011;40599;53.132;6.090;2023-08-30T01:17:27;16.80;;;12.73;;
54699;SDS011;40599;53.132;6.090;2023-08-30T01:20:00;18.25;;;13.10;;
54699;SDS011;40599;53.132;6.090;2023-08-30T01:27:41;18.63;;;13.13;;
54699;SDS011;40599;53.132;6.090;2023-08-30T01:30:17;16.67;;;12.40;;
54699;SDS011;40599;53.132;6.090;2023-08-30T01:32:45;16.80;;;12.27;;
54699;SDS011;40599;53.132;6.090;2023-08-30T01:35:11;17.35;;;12.75;;
54699;SDS011;40599;53.132;6.090;2023-08-30T01:37:43;17.73;;;11.45;;
54699;SDS011;40599;53.132;6.090;2023-08-30T01:40:10;16.45;;;12.65;;
54699;SDS011;40599;53.132;6.090;2023-08-30T01:42:37;17.40;;;12.50;;
54699;SDS011;40599;53.132;6.090;2023-08-30T01:45:05;15.13;;;11.88;;
54699;SDS011;40599;53.132;6.090;2023-08-30T01:47:33;14.53;;;11.03;;
54699;SDS011;40599;53.132;6.090;2023-08-30T01:50:01;15.93;;;11.75;;
54699;SDS011;40599;53.132;6.090;2023-08-30T01:52:29;13.55;;;11.27;;
54699;SDS011;40599;53.132;6.090;2023-08-30T01:54:56;16.38;;;12.85;;
54699;SDS011;40599;53.132;6.090;2023-08-30T01:57:23;19.35;;;12.93;;
54699;SDS011;40599;53.132;6.090;2023-08-30T01:59:49;14.88;;;11.57;;
54699;SDS011;40599;53.132;6.090;2023-08-30T02:02:15;16.00;;;11.90;;
54699;SDS011;40599;53.132;6.090;2023-08-30T02:04:42;17.67;;;13.20;;
54699;SDS011;40599;53.132;6.090;2023-08-30T02:07:08;18.27;;;12.18;;
54699;SDS011;40599;53.132;6.090;2023-08-30T02:09:40;16.17;;;11.40;;
54699;SDS011;40599;53.132;6.090;2023-08-30T02:12:10;17.98;;;12.40;;
54699;SDS011;40599;53.132;6.090;2023-08-30T02:14:39;14.98;;;12.13;;
54699;SDS011;40599;53.132;6.090;2023-08-30T02:17:05;17.80;;;11.63;;
54699;SDS011;40599;53.132;6.090;2023-08-30T02:19:32;16.42;;;11.93;;
54699;SDS011;40599;53.132;6.090;2023-08-30T02:21:59;15.63;;;11.93;;
54699;SDS011;40599;53.132;6.090;2023-08-30T02:24:25;14.50;;;11.63;;
54699;SDS011;40599;53.132;6.090;2023-08-30T02:26:51;15.27;;;11.57;;
54699;SDS011;40599;53.132;6.090;2023-08-30T02:29:17;16.73;;;12.75;;
54699;SDS011;40599;53.132;6.090;2023-08-30T02:31:44;16.58;;;12.13;;
54699;SDS011;40599;53.132;6.090;2023-08-30T02:34:10;16.50;;;12.80;;
54699;SDS011;40599;53.132;6.090;2023-08-30T02:36:36;16.25;;;12.48;;
54699;SDS011;40599;53.132;6.090;2023-08-30T02:39:02;18.40;;;13.05;;
54699;SDS011;40599;53.132;6.090;2023-08-30T02:41:29;16.33;;;12.77;;
54699;SDS011;40599;53.132;6.090;2023-08-30T02:43:55;17.77;;;12.88;;
54699;SDS011;40599;53.132;6.090;2023-08-30T02:46:21;17.52;;;12.57;;
54699;SDS011;40599;53.132;6.090;2023-08-30T02:48:47;15.23;;;11.77;;
54699;SDS011;40599;53.132;6.090;2023-08-30T02:51:13;19.05;;;13.05;;
54699;SDS011;40599;53.132;6.090;2023-08-30T02:53:40;15.43;;;12.05;;
54699;SDS011;40599;53.132;6.090;2023-08-30T02:56:21;16.45;;;12.25;;
54699;SDS011;40599;53.132;6.090;2023-08-30T02:58:47;17.40;;;11.63;;
54699;SDS011;40599;53.132;6.090;2023-08-30T03:01:14;16.77;;;12.73;;
54699;SDS011;40599;53.132;6.090;2023-08-30T03:03:40;18.05;;;12.57;;
54699;SDS011;40599;53.132;6.090;2023-08-30T03:06:06;16.15;;;12.73;;
54699;SDS011;40599;53.132;6.090;2023-08-30T03:08:32;17.35;;;12.43;;
54699;SDS011;40599;53.132;6.090;2023-08-30T03:11:10;15.70;;;12.98;;
54699;SDS011;40599;53.132;6.090;2023-08-30T03:13:37;19.10;;;12.38;;
54699;SDS011;40599;53.132;6.090;2023-08-30T03:16:10;18.10;;;13.20;;
54699;SDS011;40599;53.132;6.090;2023-08-30T03:18:37;20.85;;;14.50;;
54699;SDS011;40599;53.132;6.090;2023-08-30T03:21:03;19.67;;;13.00;;
54699;SDS011;40599;53.132;6.090;2023-08-30T03:23:30;20.67;;;13.60;;
54699;SDS011;40599;53.132;6.090;2023-08-30T03:25:57;19.70;;;14.38;;
54699;SDS011;40599;53.132;6.090;2023-08-30T03:28:23;18.02;;;13.27;;
54699;SDS011;40599;53.132;6.090;2023-08-30T03:30:53;19.05;;;14.38;;
54699;SDS011;40599;53.132;6.090;2023-08-30T03:33:19;15.90;;;13.23;;
54699;SDS011;40599;53.132;6.090;2023-08-30T03:35:45;18.60;;;13.60;;
54699;SDS011;40599;53.132;6.090;2023-08-30T03:38:11;18.67;;;13.30;;
54699;SDS011;40599;53.132;6.090;2023-08-30T03:40:37;16.60;;;12.88;;
54699;SDS011;40599;53.132;6.090;2023-08-30T03:43:05;19.70;;;14.52;;
54699;SDS011;40599;53.132;6.090;2023-08-30T03:45:34;20.05;;;14.65;;
54699;SDS011;40599;53.132;6.090;2023-08-30T03:48:00;19.98;;;13.45;;
54699;SDS011;40599;53.132;6.090;2023-08-30T03:50:26;21.10;;;14.07;;
54699;SDS011;40599;53.132;6.090;2023-08-30T03:52:52;19.35;;;14.93;;
54699;SDS011;40599;53.132;6.090;2023-08-30T03:55:18;17.90;;;13.73;;
54699;SDS011;40599;53.132;6.090;2023-08-30T03:57:46;19.67;;;13.52;;
54699;SDS011;40599;53.132;6.090;2023-08-30T04:00:12;18.60;;;14.13;;
54699;SDS011;40599;53.132;6.090;2023-08-30T04:02:38;17.58;;;13.15;;
54699;SDS011;40599;53.132;6.090;2023-08-30T04:05:04;17.65;;;12.57;;
54699;SDS011;40599;53.132;6.090;2023-08-30T04:07:35;20.17;;;13.02;;
54699;SDS011;40599;53.132;6.090;2023-08-30T04:10:01;17.90;;;12.73;;
54699;SDS011;40599;53.132;6.090;2023-08-30T04:12:31;19.33;;;13.55;;
54699;SDS011;40599;53.132;6.090;2023-08-30T04:14:57;17.02;;;13.15;;
54699;SDS011;40599;53.132;6.090;2023-08-30T04:17:23;17.75;;;12.48;;
54699;SDS011;40599;53.132;6.090;2023-08-30T04:19:53;18.75;;;12.00;;
54699;SDS011;40599;53.132;6.090;2023-08-30T04:22:19;16.52;;;12.68;;
54699;SDS011;40599;53.132;6.090;2023-08-30T04:24:46;16.17;;;12.48;;
54699;SDS011;40599;53.132;6.090;2023-08-30T04:27:12;17.63;;;12.25;;
54699;SDS011;40599;53.132;6.090;2023-08-30T04:29:38;16.65;;;12.85;;
54699;SDS011;40599;53.132;6.090;2023-08-30T04:32:04;17.65;;;12.30;;
54699;SDS011;40599;53.132;6.090;2023-08-30T04:34:31;18.30;;;12.50;;
54699;SDS011;40599;53.132;6.090;2023-08-30T04:39:24;19.55;;;11.65;;
54699;SDS011;40599;53.132;6.090;2023-08-30T04:41:50;19.13;;;12.40;;
54699;SDS011;40599;53.132;6.090;2023-08-30T04:44:17;17.95;;;12.80;;
54699;SDS011;40599;53.132;6.090;2023-08-30T04:46:44;19.90;;;13.32;;
54699;SDS011;40599;53.132;6.090;2023-08-30T04:49:10;16.50;;;12.85;;
54699;SDS011;40599;53.132;6.090;2023-08-30T04:51:37;16.70;;;12.90;;
54699;SDS011;40599;53.132;6.090;2023-08-30T04:54:03;21.40;;;13.75;;
54699;SDS011;40599;53.132;6.090;2023-08-30T04:56:29;16.67;;;12.43;;
54699;SDS011;40599;53.132;6.090;2023-08-30T04:58:55;16.73;;;11.95;;
54699;SDS011;40599;53.132;6.090;2023-08-30T05:01:22;21.02;;;12.88;;
54699;SDS011;40599;53.132;6.090;2023-08-30T05:03:48;20.05;;;12.25;;
54699;SDS011;40599;53.132;6.090;2023-08-30T05:06:14;18.17;;;12.68;;
54699;SDS011;40599;53.132;6.090;2023-08-30T05:08:41;15.23;;;12.20;;
54699;SDS011;40599;53.132;6.090;2023-08-30T05:11:08;19.48;;;12.07;;
54699;SDS011;40599;53.132;6.090;2023-08-30T05:13:34;18.35;;;12.82;;
54699;SDS011;40599;53.132;6.090;2023-08-30T05:16:00;18.33;;;12.55;;
54699;SDS011;40599;53.132;6.090;2023-08-30T05:18:26;19.35;;;12.27;;
54699;SDS011;40599;53.132;6.090;2023-08-30T05:20:52;17.38;;;12.35;;
54699;SDS011;40599;53.132;6.090;2023-08-30T05:23:18;16.45;;;12.25;;
54699;SDS011;40599;53.132;6.090;2023-08-30T05:25:45;19.80;;;12.07;;
54699;SDS011;40599;53.132;6.090;2023-08-30T05:28:12;19.35;;;12.88;;
54699;SDS011;40599;53.132;6.090;2023-08-30T05:30:41;17.30;;;13.35;;
54699;SDS011;40599;53.132;6.090;2023-08-30T05:33:08;18.02;;;12.38;;
54699;SDS011;40599;53.132;6.090;2023-08-30T05:35:34;15.00;;;11.70;;
54699;SDS011;40599;53.132;6.090;2023-08-30T05:38:00;21.88;;;12.93;;
54699;SDS011;40599;53.132;6.090;2023-08-30T05:40:26;21.17;;;12.50;;
54699;SDS011;40599;53.132;6.090;2023-08-30T05:42:52;17.23;;;12.07;;
54699;SDS011;40599;53.132;6.090;2023-08-30T05:45:20;19.30;;;12.82;;
54699;SDS011;40599;53.132;6.090;2023-08-30T05:47:46;15.38;;;10.57;;
54699;SDS011;40599;53.132;6.090;2023-08-30T05:50:13;16.55;;;11.73;;
54699;SDS011;40599;53.132;6.090;2023-08-30T05:52:39;17.92;;;12.35;;
54699;SDS011;40599;53.132;6.090;2023-08-30T05:57:32;16.90;;;11.73;;
54699;SDS011;40599;53.132;6.090;2023-08-30T05:59:59;15.77;;;11.02;;
54699;SDS011;40599;53.132;6.090;2023-08-30T06:04:51;19.42;;;11.10;;
54699;SDS011;40599;53.132;6.090;2023-08-30T06:07:17;15.93;;;11.00;;
54699;SDS011;40599;53.132;6.090;2023-08-30T06:09:44;14.68;;;10.10;;
54699;SDS011;40599;53.132;6.090;2023-08-30T06:12:10;15.27;;;10.95;;
54699;SDS011;40599;53.132;6.090;2023-08-30T06:14:36;18.40;;;12.15;;
54699;SDS011;40599;53.132;6.090;2023-08-30T06:17:02;19.13;;;11.55;;
54699;SDS011;40599;53.132;6.090;2023-08-30T06:19:29;17.10;;;10.95;;
54699;SDS011;40599;53.132;6.090;2023-08-30T06:21:55;18.13;;;11.50;;
54699;SDS011;40599;53.132;6.090;2023-08-30T06:24:21;16.50;;;10.57;;
54699;SDS011;40599;53.132;6.090;2023-08-30T06:26:48;16.05;;;10.48;;
54699;SDS011;40599;53.132;6.090;2023-08-30T06:29:14;21.20;;;11.00;;
54699;SDS011;40599;53.132;6.090;2023-08-30T06:31:40;14.50;;;10.88;;
54699;SDS011;40599;53.132;6.090;2023-08-30T06:34:07;14.60;;;10.73;;
54699;SDS011;40599;53.132;6.090;2023-08-30T06:36:33;14.88;;;10.32;;
54699;SDS011;40599;53.132;6.090;2023-08-30T06:42:12;17.27;;;10.23;;
54699;SDS011;40599;53.132;6.090;2023-08-30T06:44:38;17.27;;;10.65;;
54699;SDS011;40599;53.132;6.090;2023-08-30T06:47:05;15.77;;;10.60;;
54699;SDS011;40599;53.132;6.090;2023-08-30T06:49:31;11.85;;;8.77;;
54699;SDS011;40599;53.132;6.090;2023-08-30T06:51:59;17.17;;;10.73;;
54699;SDS011;40599;53.132;6.090;2023-08-30T06:54:28;14.67;;;10.30;;
54699;SDS011;40599;53.132;6.090;2023-08-30T06:56:58;15.90;;;10.00;;
54699;SDS011;40599;53.132;6.090;2023-08-30T06:59:25;15.60;;;9.60;;
54699;SDS011;40599;53.132;6.090;2023-08-30T07:01:51;17.45;;;10.73;;
54699;SDS011;40599;53.132;6.090;2023-08-30T07:04:18;20.00;;;10.50;;
54699;SDS011;40599;53.132;6.090;2023-08-30T07:06:44;17.20;;;10.38;;
54699;SDS011;40599;53.132;6.090;2023-08-30T07:09:10;16.02;;;10.27;;
54699;SDS011;40599;53.132;6.090;2023-08-30T07:11:37;12.63;;;8.38;;
54699;SDS011;40599;53.132;6.090;2023-08-30T07:14:03;19.90;;;10.45;;
54699;SDS011;40599;53.132;6.090;2023-08-30T07:16:30;17.88;;;9.98;;
54699;SDS011;40599;53.132;6.090;2023-08-30T07:21:24;13.65;;;9.30;;
54699;SDS011;40599;53.132;6.090;2023-08-30T07:23:50;20.52;;;9.52;;
54699;SDS011;40599;53.132;6.090;2023-08-30T07:26:17;15.20;;;9.40;;
54699;SDS011;40599;53.132;6.090;2023-08-30T07:28:46;13.82;;;9.32;;
54699;SDS011;40599;53.132;6.090;2023-08-30T07:31:14;15.60;;;8.80;;
54699;SDS011;40599;53.132;6.090;2023-08-30T07:33:43;14.00;;;8.57;;
54699;SDS011;40599;53.132;6.090;2023-08-30T07:36:10;12.02;;;8.68;;
54699;SDS011;40599;53.132;6.090;2023-08-30T07:38:37;14.03;;;8.50;;
54699;SDS011;40599;53.132;6.090;2023-08-30T07:41:03;12.32;;;8.32;;
54699;SDS011;40599;53.132;6.090;2023-08-30T07:43:29;11.70;;;7.13;;
54699;SDS011;40599;53.132;6.090;2023-08-30T07:45:56;12.57;;;7.82;;
54699;SDS011;40599;53.132;6.090;2023-08-30T07:48:22;12.65;;;7.25;;
54699;SDS011;40599;53.132;6.090;2023-08-30T07:50:48;12.30;;;7.55;;
54699;SDS011;40599;53.132;6.090;2023-08-30T07:53:14;12.95;;;8.35;;
54699;SDS011;40599;53.132;6.090;2023-08-30T07:58:50;10.63;;;6.53;;
54699;SDS011;40599;53.132;6.090;2023-08-30T08:01:17;11.30;;;6.50;;
54699;SDS011;40599;53.132;6.090;2023-08-30T08:03:43;10.57;;;5.60;;
54699;SDS011;40599;53.132;6.090;2023-08-30T08:06:09;12.63;;;6.47;;
54699;SDS011;40599;53.132;6.090;2023-08-30T08:08:35;9.63;;;5.72;;
54699;SDS011;40599;53.132;6.090;2023-08-30T08:11:01;12.98;;;6.38;;
54699;SDS011;40599;53.132;6.090;2023-08-30T08:13:28;11.23;;;6.93;;
54699;SDS011;40599;53.132;6.090;2023-08-30T08:15:58;10.02;;;6.55;;
54699;SDS011;40599;53.132;6.090;2023-08-30T08:18:24;11.83;;;7.07;;
54699;SDS011;40599;53.132;6.090;2023-08-30T08:20:51;11.30;;;6.97;;
54699;SDS011;40599;53.132;6.090;2023-08-30T08:23:17;14.23;;;7.60;;
54699;SDS011;40599;53.132;6.090;2023-08-30T08:25:44;11.07;;;7.15;;
54699;SDS011;40599;53.132;6.090;2023-08-30T08:28:10;13.30;;;7.07;;
54699;SDS011;40599;53.132;6.090;2023-08-30T08:30:36;12.50;;;8.02;;
54699;SDS011;40599;53.132;6.090;2023-08-30T08:33:02;11.80;;;7.63;;
54699;SDS011;40599;53.132;6.090;2023-08-30T08:35:29;12.65;;;8.07;;
54699;SDS011;40599;53.132;6.090;2023-08-30T08:37:55;11.52;;;8.30;;
54699;SDS011;40599;53.132;6.090;2023-08-30T08:40:21;11.93;;;7.93;;
54699;SDS011;40599;53.132;6.090;2023-08-30T08:42:47;13.45;;;7.60;;
54699;SDS011;40599;53.132;6.090;2023-08-30T08:45:16;10.97;;;8.37;;
54699;SDS011;40599;53.132;6.090;2023-08-30T08:47:42;12.32;;;7.93;;
54699;SDS011;40599;53.132;6.090;2023-08-30T08:50:09;13.38;;;8.80;;
54699;SDS011;40599;53.132;6.090;2023-08-30T08:52:35;16.20;;;9.18;;
54699;SDS011;40599;53.132;6.090;2023-08-30T08:55:01;13.68;;;8.65;;
54699;SDS011;40599;53.132;6.090;2023-08-30T08:57:31;12.75;;;8.40;;
54699;SDS011;40599;53.132;6.090;2023-08-30T08:59:57;15.90;;;8.77;;
54699;SDS011;40599;53.132;6.090;2023-08-30T09:05:08;13.57;;;8.40;;
54699;SDS011;40599;53.132;6.090;2023-08-30T09:07:35;12.53;;;7.67;;
54699;SDS011;40599;53.132;6.090;2023-08-30T09:10:02;13.25;;;8.45;;
54699;SDS011;40599;53.132;6.090;2023-08-30T09:12:31;15.18;;;9.52;;
54699;SDS011;40599;53.132;6.090;2023-08-30T09:15:04;14.47;;;8.30;;
54699;SDS011;40599;53.132;6.090;2023-08-30T09:17:40;13.63;;;8.40;;
54699;SDS011;40599;53.132;6.090;2023-08-30T09:20:11;13.73;;;8.05;;
54699;SDS011;40599;53.132;6.090;2023-08-30T09:22:41;13.97;;;8.57;;
54699;SDS011;40599;53.132;6.090;2023-08-30T09:25:08;11.63;;;7.77;;
54699;SDS011;40599;53.132;6.090;2023-08-30T09:27:34;12.13;;;8.07;;
54699;SDS011;40599;53.132;6.090;2023-08-30T09:30:01;11.60;;;7.50;;
54699;SDS011;40599;53.132;6.090;2023-08-30T09:32:28;12.97;;;7.37;;
54699;SDS011;40599;53.132;6.090;2023-08-30T09:34:55;9.90;;;5.97;;
54699;SDS011;40599;53.132;6.090;2023-08-30T09:37:24;9.93;;;5.90;;
54699;SDS011;40599;53.132;6.090;2023-08-30T09:39:51;10.93;;;5.33;;
54699;SDS011;40599;53.132;6.090;2023-08-30T09:42:18;8.65;;;5.32;;
54699;SDS011;40599;53.132;6.090;2023-08-30T09:44:44;8.23;;;5.13;;
54699;SDS011;40599;53.132;6.090;2023-08-30T09:47:12;11.30;;;5.70;;
54699;SDS011;40599;53.132;6.090;2023-08-30T09:49:43;8.30;;;5.50;;
54699;SDS011;40599;53.132;6.090;2023-08-30T09:52:14;11.50;;;6.47;;
54699;SDS011;40599;53.132;6.090;2023-08-30T09:54:42;9.37;;;6.03;;
54699;SDS011;40599;53.132;6.090;2023-08-30T09:57:09;8.23;;;5.90;;
54699;SDS011;40599;53.132;6.090;2023-08-30T09:59:35;8.02;;;5.15;;
54699;SDS011;40599;53.132;6.090;2023-08-30T10:02:03;10.27;;;5.87;;
54699;SDS011;40599;53.132;6.090;2023-08-30T10:04:29;10.27;;;5.70;;
54699;SDS011;40599;53.132;6.090;2023-08-30T10:06:57;10.13;;;6.40;;
54699;SDS011;40599;53.132;6.090;2023-08-30T10:11:50;11.33;;;6.63;;
54699;SDS011;40599;53.132;6.090;2023-08-30T10:14:16;12.10;;;7.30;;
54699;SDS011;40599;53.132;6.090;2023-08-30T10:16:43;11.75;;;6.78;;
54699;SDS011;40599;53.132;6.090;2023-08-30T10:21:45;12.93;;;7.43;;
54699;SDS011;40599;53.132;6.090;2023-08-30T10:24:12;13.30;;;7.23;;
54699;SDS011;40599;53.132;6.090;2023-08-30T10:26:41;11.57;;;6.47;;
54699;SDS011;40599;53.132;6.090;2023-08-30T10:29:08;12.80;;;6.60;;
54699;SDS011;40599;53.132;6.090;2023-08-30T10:31:37;9.07;;;6.40;;
54699;SDS011;40599;53.132;6.090;2023-08-30T10:34:11;12.23;;;7.10;;
54699;SDS011;40599;53.132;6.090;2023-08-30T10:36:37;13.27;;;6.70;;
54699;SDS011;40599;53.132;6.090;2023-08-30T10:39:10;9.52;;;6.72;;
54699;SDS011;40599;53.132;6.090;2023-08-30T10:41:36;9.83;;;6.30;;
54699;SDS011;40599;53.132;6.090;2023-08-30T10:44:02;12.45;;;6.65;;
54699;SDS011;40599;53.132;6.090;2023-08-30T10:46:29;8.70;;;6.80;;
54699;SDS011;40599;53.132;6.090;2023-08-30T10:48:56;8.87;;;6.20;;
54699;SDS011;40599;53.132;6.090;2023-08-30T10:51:38;8.17;;;5.30;;
54699;SDS011;40599;53.132;6.090;2023-08-30T10:54:11;7.33;;;4.87;;
54699;SDS011;40599;53.132;6.090;2023-08-30T10:59:20;7.47;;;5.50;;
54699;SDS011;40599;53.132;6.090;2023-08-30T11:01:47;7.47;;;4.70;;
54699;SDS011;40599;53.132;6.090;2023-08-30T11:06:39;6.97;;;3.73;;
54699;SDS011;40599;53.132;6.090;2023-08-30T11:09:06;5.97;;;3.63;;
54699;SDS011;40599;53.132;6.090;2023-08-30T11:11:33;6.00;;;3.87;;
54699;SDS011;40599;53.132;6.090;2023-08-30T11:14:07;6.20;;;3.80;;
54699;SDS011;40599;53.132;6.090;2023-08-30T11:16:36;5.77;;;3.90;;
54699;SDS011;40599;53.132;6.090;2023-08-30T11:19:06;5.93;;;3.35;;
54699;SDS011;40599;53.132;6.090;2023-08-30T11:21:34;6.17;;;3.80;;
54699;SDS011;40599;53.132;6.090;2023-08-30T11:24:00;5.20;;;3.40;;
54699;SDS011;40599;53.132;6.090;2023-08-30T11:26:27;7.57;;;3.80;;
54699;SDS011;40599;53.132;6.090;2023-08-30T11:28:53;7.20;;;3.78;;
54699;SDS011;40599;53.132;6.090;2023-08-30T11:31:19;8.90;;;4.35;;
54699;SDS011;40599;53.132;6.090;2023-08-30T11:33:54;8.97;;;4.67;;
54699;SDS011;40599;53.132;6.090;2023-08-30T11:36:26;6.20;;;3.97;;
54699;SDS011;40599;53.132;6.090;2023-08-30T11:38:53;9.30;;;5.27;;
54699;SDS011;40599;53.132;6.090;2023-08-30T11:41:22;7.13;;;4.97;;
54699;SDS011;40599;53.132;6.090;2023-08-30T11:43:49;8.40;;;4.77;;
54699;SDS011;40599;53.132;6.090;2023-08-30T11:46:16;9.10;;;5.40;;
54699;SDS011;40599;53.132;6.090;2023-08-30T11:51:09;7.07;;;4.87;;
54699;SDS011;40599;53.132;6.090;2023-08-30T11:53:36;9.33;;;5.10;;
54699;SDS011;40599;53.132;6.090;2023-08-30T11:56:02;7.13;;;5.15;;
54699;SDS011;40599;53.132;6.090;2023-08-30T11:58:33;8.03;;;5.20;;
54699;SDS011;40599;53.132;6.090;2023-08-30T12:00:59;6.00;;;4.43;;
54699;SDS011;40599;53.132;6.090;2023-08-30T12:03:26;6.90;;;4.95;;
54699;SDS011;40599;53.132;6.090;2023-08-30T12:05:53;6.50;;;5.00;;
54699;SDS011;40599;53.132;6.090;2023-08-30T12:08:20;6.70;;;5.10;;
54699;SDS011;40599;53.132;6.090;2023-08-30T12:10:46;9.65;;;4.70;;
54699;SDS011;40599;53.132;6.090;2023-08-30T12:13:26;8.45;;;5.20;;
54699;SDS011;40599;53.132;6.090;2023-08-30T12:15:56;8.33;;;5.50;;
54699;SDS011;40599;53.132;6.090;2023-08-30T12:18:22;8.27;;;5.60;;
54699;SDS011;40599;53.132;6.090;2023-08-30T12:23:28;8.67;;;5.57;;
54699;SDS011;40599;53.132;6.090;2023-08-30T12:25:58;7.83;;;5.70;;
54699;SDS011;40599;53.132;6.090;2023-08-30T12:28:28;8.00;;;5.50;;
54699;SDS011;40599;53.132;6.090;2023-08-30T12:30:55;8.30;;;6.03;;
54699;SDS011;40599;53.132;6.090;2023-08-30T12:33:21;9.73;;;6.43;;
54699;SDS011;40599;53.132;6.090;2023-08-30T12:35:47;8.40;;;5.82;;
54699;SDS011;40599;53.132;6.090;2023-08-30T12:38:13;8.98;;;6.28;;
54699;SDS011;40599;53.132;6.090;2023-08-30T12:40:49;8.63;;;6.43;;
54699;SDS011;40599;53.132;6.090;2023-08-30T12:43:16;10.90;;;6.57;;
54699;SDS011;40599;53.132;6.090;2023-08-30T12:45:43;7.95;;;5.60;;
54699;SDS011;40599;53.132;6.090;2023-08-30T12:48:10;10.40;;;7.50;;
54699;SDS011;40599;53.132;6.090;2023-08-30T12:50:37;7.90;;;6.27;;
54699;SDS011;40599;53.132;6.090;2023-08-30T12:53:03;9.88;;;6.28;;
54699;SDS011;40599;53.132;6.090;2023-08-30T12:55:30;8.32;;;6.43;;
54699;SDS011;40599;53.132;6.090;2023-08-30T12:57:56;10.10;;;7.07;;
54699;SDS011;40599;53.132;6.090;2023-08-30T13:00:23;9.10;;;6.20;;
54699;SDS011;40599;53.132;6.090;2023-08-30T13:02:49;8.80;;;6.55;;
54699;SDS011;40599;53.132;6.090;2023-08-30T13:05:16;9.65;;;7.50;;
54699;SDS011;40599;53.132;6.090;2023-08-30T13:07:42;7.68;;;6.35;;
54699;SDS011;40599;53.132;6.090;2023-08-30T13:10:09;10.05;;;7.07;;
54699;SDS011;40599;53.132;6.090;2023-08-30T13:12:35;8.73;;;6.10;;
54699;SDS011;40599;53.132;6.090;2023-08-30T13:15:02;11.77;;;7.22;;
54699;SDS011;40599;53.132;6.090;2023-08-30T13:17:28;9.18;;;7.10;;
54699;SDS011;40599;53.132;6.090;2023-08-30T13:19:54;8.60;;;6.70;;
54699;SDS011;40599;53.132;6.090;2023-08-30T13:22:22;9.07;;;6.20;;
54699;SDS011;40599;53.132;6.090;2023-08-30T13:24:49;7.85;;;6.35;;
54699;SDS011;40599;53.132;6.090;2023-08-30T13:27:15;8.68;;;6.38;;
54699;SDS011;40599;53.132;6.090;2023-08-30T13:29:41;12.48;;;8.02;;
54699;SDS011;40599;53.132;6.090;2023-08-30T13:32:08;10.18;;;6.30;;
54699;SDS011;40599;53.132;6.090;2023-08-30T13:34:34;11.50;;;7.25;;
54699;SDS011;40599;53.132;6.090;2023-08-30T13:37:00;8.65;;;6.22;;
54699;SDS011;40599;53.132;6.090;2023-08-30T13:39:26;8.75;;;6.57;;
54699;SDS011;40599;53.132;6.090;2023-08-30T13:41:52;9.10;;;6.38;;
54699;SDS011;40599;53.132;6.090;2023-08-30T13:44:19;9.93;;;6.88;;
54699;SDS011;40599;53.132;6.090;2023-08-30T13:46:45;8.63;;;7.00;;
54699;SDS011;40599;53.132;6.090;2023-08-30T13:49:14;14.77;;;7.27;;
54699;SDS011;40599;53.132;6.090;2023-08-30T13:51:41;9.77;;;6.93;;
54699;SDS011;40599;53.132;6.090;2023-08-30T13:54:08;8.97;;;7.07;;
54699;SDS011;40599;53.132;6.090;2023-08-30T13:56:35;9.18;;;6.97;;
54699;SDS011;40599;53.132;6.090;2023-08-30T13:59:03;11.43;;;7.17;;
54699;SDS011;40599;53.132;6.090;2023-08-30T14:01:33;9.60;;;7.07;;
54699;SDS011;40599;53.132;6.090;2023-08-30T14:07:25;9.80;;;6.80;;
54699;SDS011;40599;53.132;6.090;2023-08-30T14:09:51;8.90;;;6.38;;
54699;SDS011;40599;53.132;6.090;2023-08-30T14:14:44;6.93;;;4.93;;
54699;SDS011;40599;53.132;6.090;2023-08-30T14:17:10;6.45;;;5.13;;
54699;SDS011;40599;53.132;6.090;2023-08-30T14:19:37;7.95;;;5.55;;
54699;SDS011;40599;53.132;6.090;2023-08-30T14:22:03;6.50;;;5.25;;
54699;SDS011;40599;53.132;6.090;2023-08-30T14:24:31;11.03;;;8.83;;
54699;SDS011;40599;53.132;6.090;2023-08-30T14:26:59;19.03;;;16.17;;
54699;SDS011;40599;53.132;6.090;2023-08-30T14:29:25;14.30;;;12.13;;
54699;SDS011;40599;53.132;6.090;2023-08-30T14:31:52;12.88;;;10.85;;
54699;SDS011;40599;53.132;6.090;2023-08-30T14:34:19;14.10;;;12.07;;
54699;SDS011;40599;53.132;6.090;2023-08-30T14:36:46;13.50;;;11.37;;
54699;SDS011;40599;53.132;6.090;2023-08-30T14:39:13;12.13;;;10.50;;
54699;SDS011;40599;53.132;6.090;2023-08-30T14:41:39;9.13;;;8.10;;
54699;SDS011;40599;53.132;6.090;2023-08-30T14:44:06;10.93;;;8.75;;
54699;SDS011;40599;53.132;6.090;2023-08-30T14:46:33;11.03;;;9.80;;
54699;SDS011;40599;53.132;6.090;2023-08-30T14:48:59;11.07;;;9.57;;
54699;SDS011;40599;53.132;6.090;2023-08-30T14:51:25;11.85;;;9.38;;
54699;SDS011;40599;53.132;6.090;2023-08-30T14:53:51;11.35;;;10.15;;
54699;SDS011;40599;53.132;6.090;2023-08-30T14:56:17;10.50;;;8.52;;
54699;SDS011;40599;53.132;6.090;2023-08-30T14:58:44;12.20;;;9.88;;
54699;SDS011;40599;53.132;6.090;2023-08-30T15:01:14;12.00;;;8.50;;
54699;SDS011;40599;53.132;6.090;2023-08-30T15:03:41;8.53;;;7.50;;
54699;SDS011;40599;53.132;6.090;2023-08-30T15:06:08;8.50;;;7.55;;
54699;SDS011;40599;53.132;6.090;2023-08-30T15:08:34;9.52;;;8.35;;
54699;SDS011;40599;53.132;6.090;2023-08-30T15:11:00;10.25;;;6.72;;
54699;SDS011;40599;53.132;6.090;2023-08-30T15:13:34;8.73;;;5.93;;
54699;SDS011;40599;53.132;6.090;2023-08-30T15:16:03;11.53;;;9.10;;
54699;SDS011;40599;53.132;6.090;2023-08-30T15:18:29;12.38;;;10.48;;
54699;SDS011;40599;53.132;6.090;2023-08-30T15:20:56;10.10;;;6.88;;
54699;SDS011;40599;53.132;6.090;2023-08-30T15:23:24;8.53;;;4.67;;